sensor_id;sensor_type;location;lat;lon;timestamp;pressure;altitude;pressure_sealevel;temperature;humidity
12757;BME280;31601;48.042;12.240;2023-02-13T00:01:06;98083.19;;;3.71;74.59
12757;BME280;31601;48.042;12.240;2023-02-13T00:03:33;98081.69;;;3.82;74.72
12757;BME280;31601;48.042;12.240;2023-02-13T00:05:59;98080.94;;;3.80;74.68
12757;BME280;31601;48.042;12.240;2023-02-13T00:08:26;98082.81;;;3.78;74.69
12757;BME280;31601;48.042;12.240;2023-02-13T00:10:53;98087.31;;;3.88;74.45
12757;BME280;31601;48.042;12.240;2023-02-13T00:13:20;98086.69;;;3.85;74.24
12757;BME280;31601;48.042;12.240;2023-02-13T00:15:54;98089.66;;;3.64;74.53
12757;BME280;31601;48.042;12.240;2023-02-13T00:18:21;98084.47;;;3.64;74.39
12757;BME280;31601;48.042;12.240;2023-02-13T00:20:56;98093.03;;;3.66;74.32
12757;BME280;31601;48.042;12.240;2023-02-13T00:23:22;98084.75;;;3.74;74.36
12757;BME280;31601;48.042;12.240;2023-02-13T00:25:49;98077.94;;;3.86;74.23
12757;BME280;31601;48.042;12.240;2023-02-13T00:28:15;98080.94;;;3.80;73.81
12757;BME280;31601;48.042;12.240;2023-02-13T00:30:43;98074.16;;;3.91;73.96
12757;BME280;31601;48.042;12.240;2023-02-13T00:33:09;98076.88;;;3.75;74.07
12757;BME280;31601;48.042;12.240;2023-02-13T00:35:36;98067.56;;;3.86;73.84
12757;BME280;31601;48.042;12.240;2023-02-13T00:38:02;98065.25;;;3.96;73.58
12757;BME280;31601;48.042;12.240;2023-02-13T00:40:29;98069.19;;;3.74;73.69
12757;BME280;31601;48.042;12.240;2023-02-13T00:42:55;98067.94;;;3.80;73.63
12757;BME280;31601;48.042;12.240;2023-02-13T00:45:21;98069.03;;;3.48;74.36
12757;BME280;31601;48.042;12.240;2023-02-13T00:47:50;98067.28;;;3.34;74.55
12757;BME280;31601;48.042;12.240;2023-02-13T00:50:16;98065.69;;;3.32;74.86
12757;BME280;31601;48.042;12.240;2023-02-13T00:52:43;98061.06;;;3.37;74.42
12757;BME280;31601;48.042;12.240;2023-02-13T00:55:09;98063.00;;;3.19;75.10
12757;BME280;31601;48.042;12.240;2023-02-13T00:57:36;98059.03;;;3.42;74.72
12757;BME280;31601;48.042;12.240;2023-02-13T01:00:03;98061.53;;;3.44;74.69
12757;BME280;31601;48.042;12.240;2023-02-13T01:02:30;98055.03;;;3.36;74.55
12757;BME280;31601;48.042;12.240;2023-02-13T01:05:01;98047.53;;;3.46;74.42
12757;BME280;31601;48.042;12.240;2023-02-13T01:07:28;98057.25;;;3.28;75.00
12757;BME280;31601;48.042;12.240;2023-02-13T01:09:54;98053.72;;;3.44;74.58
12757;BME280;31601;48.042;12.240;2023-02-13T01:12:21;98055.41;;;3.30;74.59
12757;BME280;31601;48.042;12.240;2023-02-13T01:14:47;98055.13;;;3.20;74.92
12757;BME280;31601;48.042;12.240;2023-02-13T01:17:15;98061.06;;;3.37;74.81
12757;BME280;31601;48.042;12.240;2023-02-13T01:19:41;98053.00;;;3.42;74.67
12757;BME280;31601;48.042;12.240;2023-02-13T01:22:09;98056.63;;;3.25;75.02
12757;BME280;31601;48.042;12.240;2023-02-13T01:24:36;98053.19;;;3.10;75.23
12757;BME280;31601;48.042;12.240;2023-02-13T01:27:02;98055.31;;;3.17;75.26
12757;BME280;31601;48.042;12.240;2023-02-13T01:29:29;98058.19;;;3.27;74.77
12757;BME280;31601;48.042;12.240;2023-02-13T01:31:55;98060.22;;;3.22;75.00
12757;BME280;31601;48.042;12.240;2023-02-13T01:34:22;98066.69;;;2.86;75.62
12757;BME280;31601;48.042;12.240;2023-02-13T01:36:48;98056.22;;;3.02;75.53
12757;BME280;31601;48.042;12.240;2023-02-13T01:39:16;98050.22;;;3.01;75.36
12757;BME280;31601;48.042;12.240;2023-02-13T01:41:42;98054.84;;;2.96;75.51
12757;BME280;31601;48.042;12.240;2023-02-13T01:44:49;98052.81;;;3.01;75.46
12757;BME280;31601;48.042;12.240;2023-02-13T01:47:21;98047.44;;;3.19;75.00
12757;BME280;31601;48.042;12.240;2023-02-13T01:49:49;98049.50;;;3.14;75.04
12757;BME280;31601;48.042;12.240;2023-02-13T01:52:17;98049.50;;;3.14;74.67
12757;BME280;31601;48.042;12.240;2023-02-13T01:54:46;98057.56;;;3.09;75.17
12757;BME280;31601;48.042;12.240;2023-02-13T01:57:15;98058.16;;;2.84;75.62
12757;BME280;31601;48.042;12.240;2023-02-13T01:59:46;98061.88;;;2.80;75.55
12757;BME280;31601;48.042;12.240;2023-02-13T02:02:14;98065.72;;;2.58;76.38
12757;BME280;31601;48.042;12.240;2023-02-13T02:04:42;98057.56;;;2.64;75.83
12757;BME280;31601;48.042;12.240;2023-02-13T02:07:12;98049.25;;;2.74;75.55
12757;BME280;31601;48.042;12.240;2023-02-13T02:09:41;98049.81;;;2.79;75.11
12757;BME280;31601;48.042;12.240;2023-02-13T02:12:13;98051.13;;;2.86;75.25
12757;BME280;31601;48.042;12.240;2023-02-13T02:14:45;98059.56;;;2.59;75.64
12757;BME280;31601;48.042;12.240;2023-02-13T02:17:13;98053.28;;;2.49;76.13
12757;BME280;31601;48.042;12.240;2023-02-13T02:19:49;98059.63;;;2.74;75.42
12757;BME280;31601;48.042;12.240;2023-02-13T02:22:45;98056.31;;;2.86;74.88
12757;BME280;31601;48.042;12.240;2023-02-13T02:25:45;98055.81;;;2.79;75.09
12757;BME280;31601;48.042;12.240;2023-02-13T02:28:41;98059.41;;;2.62;75.10
12757;BME280;31601;48.042;12.240;2023-02-13T02:31:53;98045.28;;;2.82;74.87
12757;BME280;31601;48.042;12.240;2023-02-13T02:34:34;98052.72;;;2.28;76.39
12757;BME280;31601;48.042;12.240;2023-02-13T02:37:14;98053.16;;;2.20;76.64
12757;BME280;31601;48.042;12.240;2023-02-13T02:39:55;98048.44;;;2.43;76.01
12757;BME280;31601;48.042;12.240;2023-02-13T02:42:28;98048.13;;;2.33;76.21
12757;BME280;31601;48.042;12.240;2023-02-13T02:45:04;98049.31;;;2.27;76.16
12757;BME280;31601;48.042;12.240;2023-02-13T02:47:40;98050.44;;;2.07;76.42
12757;BME280;31601;48.042;12.240;2023-02-13T02:50:33;98061.78;;;2.05;76.55
12757;BME280;31601;48.042;12.240;2023-02-13T02:53:11;98061.50;;;2.25;76.26
12757;BME280;31601;48.042;12.240;2023-02-13T02:55:45;98053.91;;;2.38;75.74
12757;BME280;31601;48.042;12.240;2023-02-13T02:58:18;98061.09;;;2.17;76.10
12757;BME280;31601;48.042;12.240;2023-02-13T03:01:06;98059.94;;;2.07;76.41
12757;BME280;31601;48.042;12.240;2023-02-13T03:03:54;98061.19;;;2.15;76.14
12757;BME280;31601;48.042;12.240;2023-02-13T03:06:43;98060.72;;;2.39;75.38
12757;BME280;31601;48.042;12.240;2023-02-13T03:09:18;98058.72;;;1.98;75.68
12757;BME280;31601;48.042;12.240;2023-02-13T03:12:05;98052.44;;;2.18;75.79
12757;BME280;31601;48.042;12.240;2023-02-13T03:14:51;98056.78;;;2.02;76.19
12757;BME280;31601;48.042;12.240;2023-02-13T03:17:18;98065.81;;;2.10;75.79
12757;BME280;31601;48.042;12.240;2023-02-13T03:20:13;98065.69;;;2.28;75.43
12757;BME280;31601;48.042;12.240;2023-02-13T03:23:10;98066.34;;;2.31;74.95
12757;BME280;31601;48.042;12.240;2023-02-13T03:25:50;98071.66;;;1.98;76.11
12757;BME280;31601;48.042;12.240;2023-02-13T03:28:27;98070.38;;;2.21;75.43
12757;BME280;31601;48.042;12.240;2023-02-13T03:31:21;98070.53;;;2.34;74.76
12757;BME280;31601;48.042;12.240;2023-02-13T03:33:55;98077.47;;;2.18;75.35
12757;BME280;31601;48.042;12.240;2023-02-13T03:36:32;98072.81;;;2.24;75.16
12757;BME280;31601;48.042;12.240;2023-02-13T03:39:22;98082.38;;;2.38;74.81
12757;BME280;31601;48.042;12.240;2023-02-13T03:41:57;98085.66;;;2.56;74.78
12757;BME280;31601;48.042;12.240;2023-02-13T03:44:29;98082.16;;;2.57;74.25
12757;BME280;31601;48.042;12.240;2023-02-13T03:46:58;98077.97;;;2.55;74.45
12757;BME280;31601;48.042;12.240;2023-02-13T03:49:29;98079.41;;;2.75;74.16
12757;BME280;31601;48.042;12.240;2023-02-13T03:52:29;98074.91;;;2.78;74.04
12757;BME280;31601;48.042;12.240;2023-02-13T03:54:59;98077.72;;;2.59;74.35
12757;BME280;31601;48.042;12.240;2023-02-13T03:57:45;98074.41;;;2.72;74.44
12757;BME280;31601;48.042;12.240;2023-02-13T04:00:34;98077.38;;;2.65;74.20
12757;BME280;31601;48.042;12.240;2023-02-13T04:03:09;98082.47;;;2.67;74.24
12757;BME280;31601;48.042;12.240;2023-02-13T04:05:40;98070.56;;;2.79;73.87
12757;BME280;31601;48.042;12.240;2023-02-13T04:08:10;98073.13;;;2.64;74.13
12757;BME280;31601;48.042;12.240;2023-02-13T04:10:42;98072.94;;;2.67;73.87
12757;BME280;31601;48.042;12.240;2023-02-13T04:13:14;98072.88;;;2.53;74.00
12757;BME280;31601;48.042;12.240;2023-02-13T04:15:47;98077.81;;;2.58;73.79
12757;BME280;31601;48.042;12.240;2023-02-13T04:18:18;98072.13;;;2.37;74.15
12757;BME280;31601;48.042;12.240;2023-02-13T04:20:46;98075.44;;;2.39;74.48
12757;BME280;31601;48.042;12.240;2023-02-13T04:23:14;98076.50;;;2.04;75.45
12757;BME280;31601;48.042;12.240;2023-02-13T04:25:43;98081.09;;;2.15;75.30
12757;BME280;31601;48.042;12.240;2023-02-13T04:28:11;98072.28;;;2.18;75.27
12757;BME280;31601;48.042;12.240;2023-02-13T04:30:38;98073.38;;;2.29;74.81
12757;BME280;31601;48.042;12.240;2023-02-13T04:33:05;98069.25;;;2.41;74.60
12757;BME280;31601;48.042;12.240;2023-02-13T04:35:31;98071.59;;;2.46;74.38
12757;BME280;31601;48.042;12.240;2023-02-13T04:37:59;98069.00;;;2.46;74.47
12757;BME280;31601;48.042;12.240;2023-02-13T04:40:27;98061.78;;;2.51;74.36
12757;BME280;31601;48.042;12.240;2023-02-13T04:42:54;98061.97;;;2.48;73.96
12757;BME280;31601;48.042;12.240;2023-02-13T04:45:20;98058.19;;;2.54;74.13
12757;BME280;31601;48.042;12.240;2023-02-13T04:47:50;98055.44;;;2.57;73.95
12757;BME280;31601;48.042;12.240;2023-02-13T04:50:17;98065.34;;;2.34;74.67
12757;BME280;31601;48.042;12.240;2023-02-13T04:52:44;98063.31;;;2.09;75.09
12757;BME280;31601;48.042;12.240;2023-02-13T04:55:10;98059.44;;;2.16;74.74
12757;BME280;31601;48.042;12.240;2023-02-13T04:57:38;98064.78;;;2.13;75.32
12757;BME280;31601;48.042;12.240;2023-02-13T05:00:06;98057.00;;;2.29;74.75
12757;BME280;31601;48.042;12.240;2023-02-13T05:02:32;98059.59;;;2.29;74.61
12757;BME280;31601;48.042;12.240;2023-02-13T05:04:59;98055.53;;;2.39;74.42
12757;BME280;31601;48.042;12.240;2023-02-13T05:07:25;98044.44;;;2.37;74.47
12757;BME280;31601;48.042;12.240;2023-02-13T05:09:52;98048.28;;;2.46;74.25
12757;BME280;31601;48.042;12.240;2023-02-13T05:12:18;98047.25;;;2.48;74.24
12757;BME280;31601;48.042;12.240;2023-02-13T05:14:46;98049.09;;;2.46;74.37
12757;BME280;31601;48.042;12.240;2023-02-13T05:17:12;98053.72;;;2.25;74.63
12757;BME280;31601;48.042;12.240;2023-02-13T05:19:39;98048.72;;;2.22;74.80
12757;BME280;31601;48.042;12.240;2023-02-13T05:22:05;98054.69;;;2.08;74.66
12757;BME280;31601;48.042;12.240;2023-02-13T05:24:49;98052.38;;;1.88;75.42
12757;BME280;31601;48.042;12.240;2023-02-13T05:27:16;98057.13;;;1.95;75.36
12757;BME280;31601;48.042;12.240;2023-02-13T05:29:42;98053.47;;;2.00;75.18
12757;BME280;31601;48.042;12.240;2023-02-13T05:32:10;98061.72;;;2.06;75.06
12757;BME280;31601;48.042;12.240;2023-02-13T05:34:36;98058.28;;;2.06;75.29
12757;BME280;31601;48.042;12.240;2023-02-13T05:37:03;98057.38;;;1.91;75.34
12757;BME280;31601;48.042;12.240;2023-02-13T05:39:30;98062.63;;;1.89;75.73
12757;BME280;31601;48.042;12.240;2023-02-13T05:41:56;98064.50;;;1.87;75.68
12757;BME280;31601;48.042;12.240;2023-02-13T05:44:26;98064.97;;;1.94;75.78
12757;BME280;31601;48.042;12.240;2023-02-13T05:46:52;98066.06;;;1.90;75.63
12757;BME280;31601;48.042;12.240;2023-02-13T05:49:20;98071.66;;;1.82;75.74
12757;BME280;31601;48.042;12.240;2023-02-13T05:51:47;98073.91;;;1.88;76.03
12757;BME280;31601;48.042;12.240;2023-02-13T05:54:16;98067.59;;;1.78;76.33
12757;BME280;31601;48.042;12.240;2023-02-13T05:56:43;98070.56;;;1.86;75.83
12757;BME280;31601;48.042;12.240;2023-02-13T05:59:09;98072.56;;;1.97;75.73
12757;BME280;31601;48.042;12.240;2023-02-13T06:01:36;98068.47;;;2.09;75.29
12757;BME280;31601;48.042;12.240;2023-02-13T06:04:03;98072.47;;;2.14;75.04
12757;BME280;31601;48.042;12.240;2023-02-13T06:06:30;98083.00;;;1.95;75.15
12757;BME280;31601;48.042;12.240;2023-02-13T06:08:57;98083.09;;;1.94;75.73
12757;BME280;31601;48.042;12.240;2023-02-13T06:11:23;98086.94;;;2.03;75.42
12757;BME280;31601;48.042;12.240;2023-02-13T06:13:50;98084.44;;;1.85;75.44
12757;BME280;31601;48.042;12.240;2023-02-13T06:16:16;98092.44;;;2.12;74.96
12757;BME280;31601;48.042;12.240;2023-02-13T06:18:43;98095.78;;;1.99;75.63
12757;BME280;31601;48.042;12.240;2023-02-13T06:21:12;98098.44;;;2.13;75.53
12757;BME280;31601;48.042;12.240;2023-02-13T06:23:39;98098.78;;;2.07;75.50
12757;BME280;31601;48.042;12.240;2023-02-13T06:26:08;98103.22;;;1.89;75.54
12757;BME280;31601;48.042;12.240;2023-02-13T06:28:35;98106.13;;;1.67;75.84
12757;BME280;31601;48.042;12.240;2023-02-13T06:31:02;98109.28;;;1.56;76.46
12757;BME280;31601;48.042;12.240;2023-02-13T06:33:28;98110.78;;;1.44;77.18
12757;BME280;31601;48.042;12.240;2023-02-13T06:35:55;98110.78;;;1.60;76.84
12757;BME280;31601;48.042;12.240;2023-02-13T06:38:21;98120.03;;;1.48;77.12
12757;BME280;31601;48.042;12.240;2023-02-13T06:40:50;98125.50;;;1.42;77.04
12757;BME280;31601;48.042;12.240;2023-02-13T06:43:19;98129.94;;;1.40;77.08
12757;BME280;31601;48.042;12.240;2023-02-13T06:45:54;98123.06;;;1.72;76.42
12757;BME280;31601;48.042;12.240;2023-02-13T06:48:21;98127.94;;;1.45;76.86
12757;BME280;31601;48.042;12.240;2023-02-13T06:50:47;98122.41;;;1.69;76.52
12757;BME280;31601;48.042;12.240;2023-02-13T06:53:16;98118.91;;;2.02;75.62
12757;BME280;31601;48.042;12.240;2023-02-13T06:55:45;98121.56;;;2.16;75.43
12757;BME280;31601;48.042;12.240;2023-02-13T06:58:13;98119.91;;;2.31;75.30
12757;BME280;31601;48.042;12.240;2023-02-13T07:00:40;98121.91;;;2.42;75.13
12757;BME280;31601;48.042;12.240;2023-02-13T07:03:06;98124.78;;;2.51;75.01
12757;BME280;31601;48.042;12.240;2023-02-13T07:05:34;98133.47;;;2.66;74.58
12757;BME280;31601;48.042;12.240;2023-02-13T07:08:00;98124.78;;;2.67;74.79
12757;BME280;31601;48.042;12.240;2023-02-13T07:10:27;98133.28;;;2.69;74.37
12757;BME280;31601;48.042;12.240;2023-02-13T07:12:53;98134.03;;;2.72;74.29
12757;BME280;31601;48.042;12.240;2023-02-13T07:15:21;98131.84;;;2.80;74.23
12757;BME280;31601;48.042;12.240;2023-02-13T07:17:47;98139.53;;;2.81;74.17
12757;BME280;31601;48.042;12.240;2023-02-13T07:20:20;98142.59;;;2.88;73.93
12757;BME280;31601;48.042;12.240;2023-02-13T07:22:46;98151.25;;;3.03;73.72
12757;BME280;31601;48.042;12.240;2023-02-13T07:25:12;98157.44;;;3.00;73.63
12757;BME280;31601;48.042;12.240;2023-02-13T07:27:39;98166.91;;;3.01;73.61
12757;BME280;31601;48.042;12.240;2023-02-13T07:30:06;98163.78;;;3.11;73.32
12757;BME280;31601;48.042;12.240;2023-02-13T07:32:34;98163.97;;;3.08;73.01
12757;BME280;31601;48.042;12.240;2023-02-13T07:35:00;98175.81;;;3.12;73.35
12757;BME280;31601;48.042;12.240;2023-02-13T07:37:27;98175.28;;;3.21;73.00
12757;BME280;31601;48.042;12.240;2023-02-13T07:39:54;98181.00;;;3.12;72.93
12757;BME280;31601;48.042;12.240;2023-02-13T07:42:21;98186.41;;;3.23;72.54
12757;BME280;31601;48.042;12.240;2023-02-13T07:44:47;98187.16;;;3.25;72.22
12757;BME280;31601;48.042;12.240;2023-02-13T07:47:14;98187.31;;;3.22;72.32
12757;BME280;31601;48.042;12.240;2023-02-13T07:49:41;98188.84;;;3.26;72.39
12757;BME280;31601;48.042;12.240;2023-02-13T07:52:08;98180.88;;;3.29;71.91
12757;BME280;31601;48.042;12.240;2023-02-13T07:54:35;98194.78;;;3.43;71.77
12757;BME280;31601;48.042;12.240;2023-02-13T07:57:11;98193.31;;;3.38;71.12
12757;BME280;31601;48.042;12.240;2023-02-13T07:59:38;98188.22;;;3.51;71.22
12757;BME280;31601;48.042;12.240;2023-02-13T08:02:04;98188.22;;;3.51;70.73
12757;BME280;31601;48.042;12.240;2023-02-13T08:04:30;98190.53;;;3.56;70.66
12757;BME280;31601;48.042;12.240;2023-02-13T08:06:58;98200.41;;;3.35;70.64
12757;BME280;31601;48.042;12.240;2023-02-13T08:09:25;98194.94;;;3.39;70.58
12757;BME280;31601;48.042;12.240;2023-02-13T08:12:09;98208.09;;;3.22;71.14
12757;BME280;31601;48.042;12.240;2023-02-13T08:14:35;98203.22;;;3.46;70.98
12757;BME280;31601;48.042;12.240;2023-02-13T08:17:02;98204.06;;;3.47;70.48
12757;BME280;31601;48.042;12.240;2023-02-13T08:19:28;98203.69;;;3.53;70.36
12757;BME280;31601;48.042;12.240;2023-02-13T08:21:55;98200.91;;;3.56;70.56
12757;BME280;31601;48.042;12.240;2023-02-13T08:24:23;98205.00;;;3.60;70.10
12757;BME280;31601;48.042;12.240;2023-02-13T08:26:49;98201.78;;;3.71;69.83
12757;BME280;31601;48.042;12.240;2023-02-13T08:29:16;98206.56;;;3.63;69.94
12757;BME280;31601;48.042;12.240;2023-02-13T08:31:42;98195.00;;;3.68;69.77
12757;BME280;31601;48.042;12.240;2023-02-13T08:34:09;98197.13;;;3.76;69.33
12757;BME280;31601;48.042;12.240;2023-02-13T08:36:35;98202.28;;;3.02;69.75
12757;BME280;31601;48.042;12.240;2023-02-13T08:39:02;98205.84;;;2.69;70.68
12757;BME280;31601;48.042;12.240;2023-02-13T08:41:30;98206.38;;;2.60;70.93
12757;BME280;31601;48.042;12.240;2023-02-13T08:43:56;98207.06;;;2.94;70.24
12757;BME280;31601;48.042;12.240;2023-02-13T08:46:23;98207.88;;;3.11;70.62
12757;BME280;31601;48.042;12.240;2023-02-13T08:48:49;98212.00;;;3.44;69.90
12757;BME280;31601;48.042;12.240;2023-02-13T08:51:16;98205.91;;;3.59;69.54
12757;BME280;31601;48.042;12.240;2023-02-13T08:53:42;98203.53;;;3.85;69.74
12757;BME280;31601;48.042;12.240;2023-02-13T08:56:09;98195.44;;;4.04;69.08
12757;BME280;31601;48.042;12.240;2023-02-13T08:58:37;98204.06;;;4.19;68.75
12757;BME280;31601;48.042;12.240;2023-02-13T09:01:07;98191.41;;;4.27;68.20
12757;BME280;31601;48.042;12.240;2023-02-13T09:03:34;98191.03;;;4.33;67.52
12757;BME280;31601;48.042;12.240;2023-02-13T09:06:01;98192.97;;;4.44;67.05
12757;BME280;31601;48.042;12.240;2023-02-13T09:08:28;98195.47;;;4.45;66.54
12757;BME280;31601;48.042;12.240;2023-02-13T09:10:55;98201.75;;;4.56;66.21
12757;BME280;31601;48.042;12.240;2023-02-13T09:13:23;98198.78;;;4.62;66.09
12757;BME280;31601;48.042;12.240;2023-02-13T09:15:50;98198.00;;;4.60;65.64
12757;BME280;31601;48.042;12.240;2023-02-13T09:18:17;98203.69;;;4.25;65.36
12757;BME280;31601;48.042;12.240;2023-02-13T09:20:43;98204.22;;;4.30;65.56
12757;BME280;31601;48.042;12.240;2023-02-13T09:23:10;98203.88;;;4.22;65.69
12757;BME280;31601;48.042;12.240;2023-02-13T09:25:36;98194.47;;;4.34;65.81
12757;BME280;31601;48.042;12.240;2023-02-13T09:28:03;98202.28;;;4.61;65.48
12757;BME280;31601;48.042;12.240;2023-02-13T09:30:29;98204.31;;;4.70;65.06
12757;BME280;31601;48.042;12.240;2023-02-13T09:32:57;98201.84;;;4.81;65.13
12757;BME280;31601;48.042;12.240;2023-02-13T09:35:24;98204.16;;;4.86;65.12
12757;BME280;31601;48.042;12.240;2023-02-13T09:37:51;98193.91;;;4.70;64.39
12757;BME280;31601;48.042;12.240;2023-02-13T09:40:21;98197.81;;;4.90;64.82
12757;BME280;31601;48.042;12.240;2023-02-13T09:42:51;98205.09;;;4.58;64.56
12757;BME280;31601;48.042;12.240;2023-02-13T09:45:19;98202.19;;;4.21;64.49
12757;BME280;31601;48.042;12.240;2023-02-13T09:47:47;98200.28;;;4.52;64.29
12757;BME280;31601;48.042;12.240;2023-02-13T09:50:18;98208.31;;;4.20;65.49
12757;BME280;31601;48.042;12.240;2023-02-13T09:52:48;98209.66;;;4.12;66.11
12757;BME280;31601;48.042;12.240;2023-02-13T09:55:17;98205.22;;;4.42;65.65
12757;BME280;31601;48.042;12.240;2023-02-13T09:57:49;98210.31;;;4.71;65.12
12757;BME280;31601;48.042;12.240;2023-02-13T10:00:20;98212.44;;;4.78;64.54
12757;BME280;31601;48.042;12.240;2023-02-13T10:03:16;98216.84;;;4.91;64.31
12757;BME280;31601;48.042;12.240;2023-02-13T10:05:52;98211.00;;;5.14;64.29
12757;BME280;31601;48.042;12.240;2023-02-13T10:11:26;98213.00;;;5.49;63.73
12757;BME280;31601;48.042;12.240;2023-02-13T10:14:03;98214.13;;;5.19;62.97
12757;BME280;31601;48.042;12.240;2023-02-13T10:16:34;98214.09;;;5.07;62.66
12757;BME280;31601;48.042;12.240;2023-02-13T10:19:04;98211.22;;;5.37;62.99
12757;BME280;31601;48.042;12.240;2023-02-13T10:21:43;98209.22;;;5.15;62.40
12757;BME280;31601;48.042;12.240;2023-02-13T10:24:22;98222.34;;;5.26;62.92
12757;BME280;31601;48.042;12.240;2023-02-13T10:26:51;98221.75;;;5.48;62.96
12757;BME280;31601;48.042;12.240;2023-02-13T10:29:22;98213.44;;;5.43;62.87
12757;BME280;31601;48.042;12.240;2023-02-13T10:32:09;98212.75;;;5.14;62.01
12757;BME280;31601;48.042;12.240;2023-02-13T10:34:43;98215.66;;;4.13;64.87
12757;BME280;31601;48.042;12.240;2023-02-13T10:37:14;98208.69;;;4.28;64.77
12757;BME280;31601;48.042;12.240;2023-02-13T10:39:44;98199.34;;;3.97;66.03
12757;BME280;31601;48.042;12.240;2023-02-13T10:42:19;98204.34;;;4.14;66.35
12757;BME280;31601;48.042;12.240;2023-02-13T10:44:55;98205.72;;;4.20;65.98
12757;BME280;31601;48.042;12.240;2023-02-13T10:47:47;98203.88;;;4.22;65.57
12757;BME280;31601;48.042;12.240;2023-02-13T10:50:22;98198.69;;;4.22;65.62
12757;BME280;31601;48.042;12.240;2023-02-13T10:53:02;98196.69;;;4.67;66.14
12757;BME280;31601;48.042;12.240;2023-02-13T10:56:03;98196.63;;;4.81;64.64
12757;BME280;31601;48.042;12.240;2023-02-13T10:58:41;98182.44;;;5.00;64.26
12757;BME280;31601;48.042;12.240;2023-02-13T11:01:16;98184.78;;;5.30;63.08
12757;BME280;31601;48.042;12.240;2023-02-13T11:03:48;98181.56;;;5.52;62.82
12757;BME280;31601;48.042;12.240;2023-02-13T11:06:25;98181.66;;;5.64;62.45
12757;BME280;31601;48.042;12.240;2023-02-13T11:08:54;98184.31;;;4.98;63.05
12757;BME280;31601;48.042;12.240;2023-02-13T11:11:28;98180.91;;;5.36;62.76
12757;BME280;31601;48.042;12.240;2023-02-13T11:14:07;98183.00;;;5.44;62.30
12757;BME280;31601;48.042;12.240;2023-02-13T11:16:39;98179.09;;;4.85;63.26
12757;BME280;31601;48.042;12.240;2023-02-13T11:19:16;98169.72;;;4.28;64.54
12757;BME280;31601;48.042;12.240;2023-02-13T11:21:45;98169.19;;;4.50;65.16
12757;BME280;31601;48.042;12.240;2023-02-13T11:24:20;98169.81;;;4.54;64.70
12757;BME280;31601;48.042;12.240;2023-02-13T11:26:51;98171.97;;;4.05;65.96
12757;BME280;31601;48.042;12.240;2023-02-13T11:29:22;98168.22;;;4.24;66.03
12757;BME280;31601;48.042;12.240;2023-02-13T11:32:00;98165.28;;;4.97;65.08
12757;BME280;31601;48.042;12.240;2023-02-13T11:34:29;98165.50;;;4.40;64.46
12757;BME280;31601;48.042;12.240;2023-02-13T11:37:20;98167.66;;;4.60;65.55
12757;BME280;31601;48.042;12.240;2023-02-13T11:39:50;98169.03;;;4.39;65.73
12757;BME280;31601;48.042;12.240;2023-02-13T11:42:23;98168.22;;;4.78;65.65
12757;BME280;31601;48.042;12.240;2023-02-13T11:44:52;98165.47;;;4.94;65.43
12757;BME280;31601;48.042;12.240;2023-02-13T11:47:36;98166.47;;;5.32;64.12
12757;BME280;31601;48.042;12.240;2023-02-13T11:50:06;98163.56;;;5.49;63.33
12757;BME280;31601;48.042;12.240;2023-02-13T11:52:51;98159.66;;;5.94;62.46
12757;BME280;31601;48.042;12.240;2023-02-13T11:55:32;98155.66;;;6.26;62.06
12757;BME280;31601;48.042;12.240;2023-02-13T11:58:01;98162.81;;;5.86;60.91
12757;BME280;31601;48.042;12.240;2023-02-13T12:00:31;98158.66;;;5.32;63.08
12757;BME280;31601;48.042;12.240;2023-02-13T12:03:02;98160.41;;;5.06;64.21
12757;BME280;31601;48.042;12.240;2023-02-13T12:05:29;98158.34;;;5.36;63.69
12757;BME280;31601;48.042;12.240;2023-02-13T12:07:59;98157.44;;;4.84;64.38
12757;BME280;31601;48.042;12.240;2023-02-13T12:10:28;98159.28;;;5.23;64.27
12757;BME280;31601;48.042;12.240;2023-02-13T12:12:58;98165.69;;;4.64;65.43
12757;BME280;31601;48.042;12.240;2023-02-13T12:15:29;98156.69;;;5.23;64.66
12757;BME280;31601;48.042;12.240;2023-02-13T12:18:04;98154.91;;;5.49;64.12
12757;BME280;31601;48.042;12.240;2023-02-13T12:20:39;98149.59;;;5.63;62.95
12757;BME280;31601;48.042;12.240;2023-02-13T12:23:19;98146.75;;;6.05;62.77
12757;BME280;31601;48.042;12.240;2023-02-13T12:26:03;98152.09;;;5.65;62.38
12757;BME280;31601;48.042;12.240;2023-02-13T12:28:46;98148.13;;;5.46;63.06
12757;BME280;31601;48.042;12.240;2023-02-13T12:31:28;98150.19;;;4.90;65.40
12757;BME280;31601;48.042;12.240;2023-02-13T12:34:19;98137.19;;;5.15;65.06
12757;BME280;31601;48.042;12.240;2023-02-13T12:37:00;98137.00;;;5.44;65.04
12757;BME280;31601;48.042;12.240;2023-02-13T12:39:33;98130.31;;;5.66;64.23
12757;BME280;31601;48.042;12.240;2023-02-13T12:42:12;98123.56;;;5.37;64.54
12757;BME280;31601;48.042;12.240;2023-02-13T12:45:09;98127.09;;;5.11;65.61
12757;BME280;31601;48.042;12.240;2023-02-13T12:47:45;98120.19;;;4.71;67.09
12757;BME280;31601;48.042;12.240;2023-02-13T12:50:29;98113.69;;;5.43;64.98
12757;BME280;31601;48.042;12.240;2023-02-13T12:53:28;98112.19;;;5.77;64.64
12757;BME280;31601;48.042;12.240;2023-02-13T12:56:10;98111.78;;;6.20;63.52
12757;BME280;31601;48.042;12.240;2023-02-13T12:58:50;98109.56;;;6.27;62.82
12757;BME280;31601;48.042;12.240;2023-02-13T13:04:30;98112.63;;;5.58;63.91
12757;BME280;31601;48.042;12.240;2023-02-13T13:07:17;98108.38;;;6.07;63.11
12757;BME280;31601;48.042;12.240;2023-02-13T13:09:54;98117.59;;;5.74;63.95
12757;BME280;31601;48.042;12.240;2023-02-13T13:12:40;98108.59;;;5.91;63.86
12757;BME280;31601;48.042;12.240;2023-02-13T13:15:15;98111.72;;;5.96;63.71
12757;BME280;31601;48.042;12.240;2023-02-13T13:17:53;98117.25;;;6.04;63.55
12757;BME280;31601;48.042;12.240;2023-02-13T13:20:43;98113.81;;;5.91;63.67
12757;BME280;31601;48.042;12.240;2023-02-13T13:23:17;98114.78;;;5.77;63.70
12757;BME280;31601;48.042;12.240;2023-02-13T13:25:54;98122.72;;;5.63;64.67
12757;BME280;31601;48.042;12.240;2023-02-13T13:28:26;98121.34;;;5.70;64.50
12757;BME280;31601;48.042;12.240;2023-02-13T13:30:54;98116.06;;;5.59;65.46